sensor_id;sensor_type;location;lat;lon;timestamp;pressure;altitude;pressure_sealevel;temperature;humidity
54262;BME280;40174;52.364;6.452;2023-07-08T00:00:40;101682.34;;;18.37;100.00
54262;BME280;40174;52.364;6.452;2023-07-08T00:03:06;101676.44;;;18.34;99.68
54262;BME280;40174;52.364;6.452;2023-07-08T00:05:33;101674.09;;;18.31;100.00
54262;BME280;40174;52.364;6.452;2023-07-08T00:08:00;101678.06;;;18.26;100.00
54262;BME280;40174;52.364;6.452;2023-07-08T00:10:28;101674.66;;;18.16;100.00
54262;BME280;40174;52.364;6.452;2023-07-08T00:12:56;101675.47;;;18.17;100.00
54262;BME280;40174;52.364;6.452;2023-07-08T00:15:28;101672.44;;;18.12;100.00
54262;BME280;40174;52.364;6.452;2023-07-08T00:17:55;101664.69;;;18.08;100.00
54262;BME280;40174;52.364;6.452;2023-07-08T00:20:32;101656.28;;;18.03;100.00
54262;BME280;40174;52.364;6.452;2023-07-08T00:22:59;101660.09;;;18.01;100.00
54262;BME280;40174;52.364;6.452;2023-07-08T00:25:27;101662.22;;;17.97;100.00
54262;BME280;40174;52.364;6.452;2023-07-08T00:27:53;101653.16;;;17.90;100.00
54262;BME280;40174;52.364;6.452;2023-07-08T00:30:23;101656.13;;;17.87;100.00
54262;BME280;40174;52.364;6.452;2023-07-08T00:32:54;101661.94;;;17.82;100.00
54262;BME280;40174;52.364;6.452;2023-07-08T00:35:22;101655.56;;;17.83;100.00
54262;BME280;40174;52.364;6.452;2023-07-08T00:37:50;101662.31;;;17.88;100.00
54262;BME280;40174;52.364;6.452;2023-07-08T00:40:21;101662.91;;;17.81;100.00
54262;BME280;40174;52.364;6.452;2023-07-08T00:42:50;101660.66;;;17.77;100.00
54262;BME280;40174;52.364;6.452;2023-07-08T00:45:31;101651.09;;;17.74;100.00
54262;BME280;40174;52.364;6.452;2023-07-08T00:48:06;101646.50;;;17.66;100.00
54262;BME280;40174;52.364;6.452;2023-07-08T00:50:36;101644.81;;;17.65;100.00
54262;BME280;40174;52.364;6.452;2023-07-08T00:53:26;101645.97;;;17.63;100.00
54262;BME280;40174;52.364;6.452;2023-07-08T00:55:55;101643.44;;;17.61;100.00
54262;BME280;40174;52.364;6.452;2023-07-08T00:58:25;101643.75;;;17.58;100.00
54262;BME280;40174;52.364;6.452;2023-07-08T01:00:53;101640.66;;;17.53;100.00
54262;BME280;40174;52.364;6.452;2023-07-08T01:03:24;101640.25;;;17.48;100.00
54262;BME280;40174;52.364;6.452;2023-07-08T01:05:53;101632.41;;;17.47;100.00
54262;BME280;40174;52.364;6.452;2023-07-08T01:08:26;101631.72;;;17.44;100.00
54262;BME280;40174;52.364;6.452;2023-07-08T01:10:56;101621.47;;;17.40;100.00
54262;BME280;40174;52.364;6.452;2023-07-08T01:13:26;101614.59;;;17.37;100.00
54262;BME280;40174;52.364;6.452;2023-07-08T01:15:53;101626.97;;;17.38;100.00
54262;BME280;40174;52.364;6.452;2023-07-08T01:18:21;101622.75;;;17.36;100.00
54262;BME280;40174;52.364;6.452;2023-07-08T01:20:51;101621.75;;;17.37;100.00
54262;BME280;40174;52.364;6.452;2023-07-08T01:23:22;101624.28;;;17.38;100.00
54262;BME280;40174;52.364;6.452;2023-07-08T01:25:49;101616.56;;;17.35;100.00
54262;BME280;40174;52.364;6.452;2023-07-08T01:28:16;101622.91;;;17.34;100.00
54262;BME280;40174;52.364;6.452;2023-07-08T01:30:43;101618.00;;;17.30;100.00
54262;BME280;40174;52.364;6.452;2023-07-08T01:33:16;101612.09;;;17.26;100.00
54262;BME280;40174;52.364;6.452;2023-07-08T01:35:45;101615.78;;;17.25;100.00
54262;BME280;40174;52.364;6.452;2023-07-08T01:38:14;101622.97;;;17.24;100.00
54262;BME280;40174;52.364;6.452;2023-07-08T01:40:50;101616.50;;;17.17;100.00
54262;BME280;40174;52.364;6.452;2023-07-08T01:43:17;101614.84;;;17.16;100.00
54262;BME280;40174;52.364;6.452;2023-07-08T01:45:44;101614.00;;;17.16;100.00
54262;BME280;40174;52.364;6.452;2023-07-08T01:48:14;101608.41;;;17.09;100.00
54262;BME280;40174;52.364;6.452;2023-07-08T01:50:42;101608.84;;;17.04;100.00
54262;BME280;40174;52.364;6.452;2023-07-08T01:53:14;101600.13;;;17.02;100.00
54262;BME280;40174;52.364;6.452;2023-07-08T01:55:43;101590.72;;;16.98;100.00
54262;BME280;40174;52.364;6.452;2023-07-08T01:58:11;101588.81;;;16.91;100.00
54262;BME280;40174;52.364;6.452;2023-07-08T02:00:37;101586.41;;;16.88;100.00
54262;BME280;40174;52.364;6.452;2023-07-08T02:03:04;101583.19;;;16.84;100.00
54262;BME280;40174;52.364;6.452;2023-07-08T02:05:31;101578.31;;;16.79;100.00
54262;BME280;40174;52.364;6.452;2023-07-08T02:07:57;101570.69;;;16.75;100.00
54262;BME280;40174;52.364;6.452;2023-07-08T02:10:25;101573.78;;;16.70;100.00
54262;BME280;40174;52.364;6.452;2023-07-08T02:12:52;101574.91;;;16.68;100.00
54262;BME280;40174;52.364;6.452;2023-07-08T02:15:20;101587.56;;;16.66;100.00
54262;BME280;40174;52.364;6.452;2023-07-08T02:17:46;101578.47;;;16.58;100.00
54262;BME280;40174;52.364;6.452;2023-07-08T02:20:14;101576.09;;;16.55;100.00
54262;BME280;40174;52.364;6.452;2023-07-08T02:22:42;101573.00;;;16.50;100.00
54262;BME280;40174;52.364;6.452;2023-07-08T02:25:09;101568.09;;;16.46;100.00
54262;BME280;40174;52.364;6.452;2023-07-08T02:27:36;101564.19;;;16.40;100.00
54262;BME280;40174;52.364;6.452;2023-07-08T02:30:04;101561.09;;;16.35;100.00
54262;BME280;40174;52.364;6.452;2023-07-08T02:32:33;101563.91;;;16.33;100.00
54262;BME280;40174;52.364;6.452;2023-07-08T02:35:01;101561.81;;;16.27;100.00
54262;BME280;40174;52.364;6.452;2023-07-08T02:37:28;101563.94;;;16.24;100.00
54262;BME280;40174;52.364;6.452;2023-07-08T02:39:55;101556.19;;;16.20;100.00
54262;BME280;40174;52.364;6.452;2023-07-08T02:42:22;101546.22;;;16.23;100.00
54262;BME280;40174;52.364;6.452;2023-07-08T02:44:48;101534.72;;;16.22;100.00
54262;BME280;40174;52.364;6.452;2023-07-08T02:47:15;101531.50;;;16.18;100.00
54262;BME280;40174;52.364;6.452;2023-07-08T02:49:43;101528.81;;;16.18;100.00
54262;BME280;40174;52.364;6.452;2023-07-08T02:52:11;101524.63;;;16.16;100.00
54262;BME280;40174;52.364;6.452;2023-07-08T02:54:37;101535.03;;;16.19;100.00
54262;BME280;40174;52.364;6.452;2023-07-08T02:57:04;101543.28;;;16.16;100.00
54262;BME280;40174;52.364;6.452;2023-07-08T02:59:31;101539.91;;;16.14;100.00
54262;BME280;40174;52.364;6.452;2023-07-08T03:01:57;101544.28;;;16.15;100.00
54262;BME280;40174;52.364;6.452;2023-07-08T03:04:24;101548.91;;;16.13;100.00
54262;BME280;40174;52.364;6.452;2023-07-08T03:06:53;101543.84;;;16.10;100.00
54262;BME280;40174;52.364;6.452;2023-07-08T03:09:19;101534.47;;;16.06;100.00
54262;BME280;40174;52.364;6.452;2023-07-08T03:11:46;101524.94;;;15.93;100.00
54262;BME280;40174;52.364;6.452;2023-07-08T03:14:13;101528.44;;;15.94;100.00
54262;BME280;40174;52.364;6.452;2023-07-08T03:16:40;101525.06;;;15.92;100.00
54262;BME280;40174;52.364;6.452;2023-07-08T03:19:08;101521.97;;;15.87;100.00
54262;BME280;40174;52.364;6.452;2023-07-08T03:21:36;101523.25;;;15.83;100.00
54262;BME280;40174;52.364;6.452;2023-07-08T03:24:05;101528.88;;;15.79;100.00
54262;BME280;40174;52.364;6.452;2023-07-08T03:26:32;101525.50;;;15.77;100.00
54262;BME280;40174;52.364;6.452;2023-07-08T03:29:00;101530.41;;;15.72;100.00
54262;BME280;40174;52.364;6.452;2023-07-08T03:31:27;101525.31;;;15.69;100.00
54262;BME280;40174;52.364;6.452;2023-07-08T03:33:54;101517.03;;;15.63;100.00
54262;BME280;40174;52.364;6.452;2023-07-08T03:36:21;101520.97;;;15.58;100.00
54262;BME280;40174;52.364;6.452;2023-07-08T03:38:50;101514.94;;;15.56;100.00
54262;BME280;40174;52.364;6.452;2023-07-08T03:41:18;101523.78;;;15.47;100.00
54262;BME280;40174;52.364;6.452;2023-07-08T03:43:44;101529.09;;;15.47;100.00
54262;BME280;40174;52.364;6.452;2023-07-08T03:46:13;101527.41;;;15.46;100.00
54262;BME280;40174;52.364;6.452;2023-07-08T03:48:40;101525.56;;;15.47;100.00
54262;BME280;40174;52.364;6.452;2023-07-08T03:51:09;101535.53;;;15.45;100.00
54262;BME280;40174;52.364;6.452;2023-07-08T03:53:40;101533.44;;;15.48;100.00
54262;BME280;40174;52.364;6.452;2023-07-08T03:56:10;101531.75;;;15.47;100.00
54262;BME280;40174;52.364;6.452;2023-07-08T03:58:39;101533.31;;;15.50;100.00
54262;BME280;40174;52.364;6.452;2023-07-08T04:01:12;101531.47;;;15.50;100.00
54262;BME280;40174;52.364;6.452;2023-07-08T04:03:41;101533.16;;;15.51;100.00
54262;BME280;40174;52.364;6.452;2023-07-08T04:06:07;101532.31;;;15.51;100.00
54262;BME280;40174;52.364;6.452;2023-07-08T04:08:34;101534.16;;;15.50;100.00
54262;BME280;40174;52.364;6.452;2023-07-08T04:11:01;101541.72;;;15.55;100.00
54262;BME280;40174;52.364;6.452;2023-07-08T04:13:28;101538.75;;;15.58;100.00
54262;BME280;40174;52.364;6.452;2023-07-08T04:15:58;101535.25;;;15.57;100.00
54262;BME280;40174;52.364;6.452;2023-07-08T04:18:25;101541.44;;;15.58;100.00
54262;BME280;40174;52.364;6.452;2023-07-08T04:20:52;101543.84;;;15.61;100.00
54262;BME280;40174;52.364;6.452;2023-07-08T04:23:19;101546.91;;;15.66;100.00
54262;BME280;40174;52.364;6.452;2023-07-08T04:25:46;101549.28;;;15.69;100.00
54262;BME280;40174;52.364;6.452;2023-07-08T04:28:14;101534.91;;;15.72;100.00
54262;BME280;40174;52.364;6.452;2023-07-08T04:30:41;101538.94;;;15.76;100.00
54262;BME280;40174;52.364;6.452;2023-07-08T04:33:12;101538.41;;;15.72;100.00
54262;BME280;40174;52.364;6.452;2023-07-08T04:35:39;101541.19;;;15.80;100.00
54262;BME280;40174;52.364;6.452;2023-07-08T04:38:07;101551.59;;;15.84;100.00
54262;BME280;40174;52.364;6.452;2023-07-08T04:40:40;101551.31;;;15.87;100.00
54262;BME280;40174;52.364;6.452;2023-07-08T04:43:07;101562.38;;;15.92;100.00
54262;BME280;40174;52.364;6.452;2023-07-08T04:45:36;101561.28;;;15.94;100.00
54262;BME280;40174;52.364;6.452;2023-07-08T04:48:03;101556.06;;;16.03;100.00
54262;BME280;40174;52.364;6.452;2023-07-08T04:50:40;101561.97;;;16.06;100.00
54262;BME280;40174;52.364;6.452;2023-07-08T04:53:07;101557.19;;;16.10;100.00
54262;BME280;40174;52.364;6.452;2023-07-08T04:55:34;101560.41;;;16.13;100.00
54262;BME280;40174;52.364;6.452;2023-07-08T04:58:01;101560.28;;;16.15;100.00
54262;BME280;40174;52.364;6.452;2023-07-08T05:00:28;101553.97;;;16.16;100.00
54262;BME280;40174;52.364;6.452;2023-07-08T05:02:55;101555.38;;;16.20;100.00
54262;BME280;40174;52.364;6.452;2023-07-08T05:05:22;101550.59;;;16.24;100.00
54262;BME280;40174;52.364;6.452;2023-07-08T05:07:50;101547.34;;;16.30;100.00
54262;BME280;40174;52.364;6.452;2023-07-08T05:10:17;101558.56;;;16.33;100.00
54262;BME280;40174;52.364;6.452;2023-07-08T05:12:44;101555.16;;;16.41;100.00
54262;BME280;40174;52.364;6.452;2023-07-08T05:15:12;101544.22;;;16.44;100.00
54262;BME280;40174;52.364;6.452;2023-07-08T05:17:39;101549.41;;;16.46;100.00
54262;BME280;40174;52.364;6.452;2023-07-08T05:20:08;101551.66;;;16.50;100.00
54262;BME280;40174;52.364;6.452;2023-07-08T05:22:35;101546.59;;;16.57;100.00
54262;BME280;40174;52.364;6.452;2023-07-08T05:25:04;101539.00;;;16.62;100.00
54262;BME280;40174;52.364;6.452;2023-07-08T05:27:31;101542.50;;;16.62;100.00
54262;BME280;40174;52.364;6.452;2023-07-08T05:29:58;101544.59;;;16.69;100.00
54262;BME280;40174;52.364;6.452;2023-07-08T05:32:25;101546.25;;;16.70;100.00
54262;BME280;40174;52.364;6.452;2023-07-08T05:34:52;101546.94;;;16.72;100.00
54262;BME280;40174;52.364;6.452;2023-07-08T05:37:19;101543.31;;;16.73;100.00
54262;BME280;40174;52.364;6.452;2023-07-08T05:39:50;101537.97;;;16.73;100.00
54262;BME280;40174;52.364;6.452;2023-07-08T05:42:19;101536.66;;;16.77;100.00
54262;BME280;40174;52.364;6.452;2023-07-08T05:44:46;101538.94;;;16.81;100.00
54262;BME280;40174;52.364;6.452;2023-07-08T05:47:13;101539.34;;;16.87;100.00
54262;BME280;40174;52.364;6.452;2023-07-08T05:49:41;101538.22;;;16.89;100.00
54262;BME280;40174;52.364;6.452;2023-07-08T05:52:08;101545.78;;;16.94;100.00
54262;BME280;40174;52.364;6.452;2023-07-08T05:54:36;101545.34;;;16.98;100.00
54262;BME280;40174;52.364;6.452;2023-07-08T05:57:04;101538.72;;;17.02;100.00
54262;BME280;40174;52.364;6.452;2023-07-08T05:59:32;101532.38;;;17.03;100.00
54262;BME280;40174;52.364;6.452;2023-07-08T06:01:59;101532.16;;;17.15;100.00
54262;BME280;40174;52.364;6.452;2023-07-08T06:04:27;101535.25;;;17.20;100.00
54262;BME280;40174;52.364;6.452;2023-07-08T06:06:53;101534.81;;;17.24;100.00
54262;BME280;40174;52.364;6.452;2023-07-08T06:09:20;101538.78;;;17.38;100.00
54262;BME280;40174;52.364;6.452;2023-07-08T06:11:47;101537.34;;;17.44;100.00
54262;BME280;40174;52.364;6.452;2023-07-08T06:14:13;101528.72;;;17.50;100.00
54262;BME280;40174;52.364;6.452;2023-07-08T06:16:41;101533.00;;;17.61;100.00
54262;BME280;40174;52.364;6.452;2023-07-08T06:19:08;101534.22;;;17.66;100.00
54262;BME280;40174;52.364;6.452;2023-07-08T06:21:35;101526.44;;;17.73;100.00
54262;BME280;40174;52.364;6.452;2023-07-08T06:24:02;101542.69;;;17.80;100.00
54262;BME280;40174;52.364;6.452;2023-07-08T06:26:29;101547.16;;;17.89;100.00
54262;BME280;40174;52.364;6.452;2023-07-08T06:28:56;101546.03;;;17.92;100.00
54262;BME280;40174;52.364;6.452;2023-07-08T06:31:23;101535.78;;;18.05;100.00
54262;BME280;40174;52.364;6.452;2023-07-08T06:33:51;101542.19;;;18.12;100.00
54262;BME280;40174;52.364;6.452;2023-07-08T06:36:17;101535.22;;;18.19;100.00
54262;BME280;40174;52.364;6.452;2023-07-08T06:38:44;101529.06;;;18.27;100.00
54262;BME280;40174;52.364;6.452;2023-07-08T06:41:11;101528.97;;;18.37;100.00
54262;BME280;40174;52.364;6.452;2023-07-08T06:43:38;101529.69;;;18.47;100.00
54262;BME280;40174;52.364;6.452;2023-07-08T06:46:13;101536.28;;;18.61;100.00
54262;BME280;40174;52.364;6.452;2023-07-08T06:48:39;101532.84;;;18.68;100.00
54262;BME280;40174;52.364;6.452;2023-07-08T06:51:07;101534.59;;;18.78;100.00
54262;BME280;40174;52.364;6.452;2023-07-08T06:53:34;101536.47;;;18.85;99.71
54262;BME280;40174;52.364;6.452;2023-07-08T06:56:01;101529.31;;;18.94;100.00
54262;BME280;40174;52.364;6.452;2023-07-08T06:58:28;101537.41;;;19.10;100.00
54262;BME280;40174;52.364;6.452;2023-07-08T07:00:55;101530.75;;;19.23;99.92
54262;BME280;40174;52.364;6.452;2023-07-08T07:03:22;101524.78;;;19.37;98.96
54262;BME280;40174;52.364;6.452;2023-07-08T07:05:48;101520.44;;;19.52;97.84
54262;BME280;40174;52.364;6.452;2023-07-08T07:08:16;101532.88;;;19.70;94.90
54262;BME280;40174;52.364;6.452;2023-07-08T07:10:43;101520.50;;;19.85;94.73
54262;BME280;40174;52.364;6.452;2023-07-08T07:13:10;101527.34;;;20.04;94.74
54262;BME280;40174;52.364;6.452;2023-07-08T07:15:36;101525.16;;;20.24;92.70
54262;BME280;40174;52.364;6.452;2023-07-08T07:18:03;101529.19;;;20.45;90.62
54262;BME280;40174;52.364;6.452;2023-07-08T07:20:30;101531.84;;;20.61;89.34
54262;BME280;40174;52.364;6.452;2023-07-08T07:22:57;101531.47;;;20.81;88.21
54262;BME280;40174;52.364;6.452;2023-07-08T07:25:25;101527.50;;;21.00;89.57
54262;BME280;40174;52.364;6.452;2023-07-08T07:27:52;101530.09;;;21.16;85.07
54262;BME280;40174;52.364;6.452;2023-07-08T07:30:19;101537.44;;;21.30;82.55
54262;BME280;40174;52.364;6.452;2023-07-08T07:32:46;101537.19;;;21.48;83.91
54262;BME280;40174;52.364;6.452;2023-07-08T07:35:13;101538.72;;;21.66;81.11
54262;BME280;40174;52.364;6.452;2023-07-08T07:37:41;101536.28;;;21.79;79.78
54262;BME280;40174;52.364;6.452;2023-07-08T07:40:09;101537.28;;;22.01;80.54
54262;BME280;40174;52.364;6.452;2023-07-08T07:42:39;101543.00;;;22.21;78.12
54262;BME280;40174;52.364;6.452;2023-07-08T07:45:07;101542.69;;;22.39;78.23
54262;BME280;40174;52.364;6.452;2023-07-08T07:47:34;101543.00;;;22.59;77.02
54262;BME280;40174;52.364;6.452;2023-07-08T07:50:01;101544.22;;;22.71;75.00
54262;BME280;40174;52.364;6.452;2023-07-08T07:52:27;101546.69;;;22.88;76.12
54262;BME280;40174;52.364;6.452;2023-07-08T07:54:54;101543.72;;;22.97;75.23
54262;BME280;40174;52.364;6.452;2023-07-08T07:57:21;101535.91;;;23.17;75.96
54262;BME280;40174;52.364;6.452;2023-07-08T07:59:50;101537.53;;;23.33;75.77
54262;BME280;40174;52.364;6.452;2023-07-08T08:02:16;101537.28;;;23.50;73.15
54262;BME280;40174;52.364;6.452;2023-07-08T08:04:43;101541.81;;;23.64;69.69
54262;BME280;40174;52.364;6.452;2023-07-08T08:07:10;101533.03;;;23.77;71.40
54262;BME280;40174;52.364;6.452;2023-07-08T08:09:37;101548.72;;;23.88;70.57
54262;BME280;40174;52.364;6.452;2023-07-08T08:12:04;101544.22;;;23.95;70.85
54262;BME280;40174;52.364;6.452;2023-07-08T08:14:31;101539.34;;;24.12;71.01
54262;BME280;40174;52.364;6.452;2023-07-08T08:16:59;101532.78;;;24.21;67.07
54262;BME280;40174;52.364;6.452;2023-07-08T08:19:27;101551.53;;;24.30;67.09
54262;BME280;40174;52.364;6.452;2023-07-08T08:21:54;101544.94;;;24.39;66.13
54262;BME280;40174;52.364;6.452;2023-07-08T08:24:21;101545.53;;;24.56;66.58
54262;BME280;40174;52.364;6.452;2023-07-08T08:26:47;101545.16;;;24.65;66.95
54262;BME280;40174;52.364;6.452;2023-07-08T08:29:14;101547.34;;;24.83;66.74
54262;BME280;40174;52.364;6.452;2023-07-08T08:31:40;101546.53;;;24.89;65.70
54262;BME280;40174;52.364;6.452;2023-07-08T08:34:08;101545.78;;;25.02;67.11
54262;BME280;40174;52.364;6.452;2023-07-08T08:36:35;101547.97;;;25.27;67.30
54262;BME280;40174;52.364;6.452;2023-07-08T08:39:02;101543.81;;;25.38;64.54
54262;BME280;40174;52.364;6.452;2023-07-08T08:41:30;101547.63;;;25.50;65.23
54262;BME280;40174;52.364;6.452;2023-07-08T08:43:58;101539.94;;;25.67;66.27
54262;BME280;40174;52.364;6.452;2023-07-08T08:46:30;101542.88;;;25.79;65.52
54262;BME280;40174;52.364;6.452;2023-07-08T08:49:02;101547.72;;;26.03;64.15
54262;BME280;40174;52.364;6.452;2023-07-08T08:51:33;101540.63;;;26.16;64.34
54262;BME280;40174;52.364;6.452;2023-07-08T08:54:00;101547.72;;;26.17;64.50
54262;BME280;40174;52.364;6.452;2023-07-08T08:56:29;101541.03;;;26.26;62.56
54262;BME280;40174;52.364;6.452;2023-07-08T08:59:03;101548.53;;;26.24;63.02
54262;BME280;40174;52.364;6.452;2023-07-08T09:01:33;101545.56;;;26.52;61.38
54262;BME280;40174;52.364;6.452;2023-07-08T09:04:02;101548.06;;;26.73;61.04
54262;BME280;40174;52.364;6.452;2023-07-08T09:06:33;101537.16;;;26.87;60.36
54262;BME280;40174;52.364;6.452;2023-07-08T09:09:03;101534.78;;;27.04;60.62
54262;BME280;40174;52.364;6.452;2023-07-08T09:11:39;101538.31;;;27.11;58.66
54262;BME280;40174;52.364;6.452;2023-07-08T09:14:14;101535.97;;;27.28;59.91
54262;BME280;40174;52.364;6.452;2023-07-08T09:16:46;101529.69;;;27.27;61.10
54262;BME280;40174;52.364;6.452;2023-07-08T09:19:22;101535.09;;;27.34;59.75
54262;BME280;40174;52.364;6.452;2023-07-08T09:21:54;101532.31;;;27.47;59.28
54262;BME280;40174;52.364;6.452;2023-07-08T09:24:31;101535.97;;;27.60;58.25
54262;BME280;40174;52.364;6.452;2023-07-08T09:27:01;101534.16;;;27.78;57.43
54262;BME280;40174;52.364;6.452;2023-07-08T09:29:28;101534.94;;;27.92;57.25
54262;BME280;40174;52.364;6.452;2023-07-08T09:31:55;101543.72;;;28.13;58.97
54262;BME280;40174;52.364;6.452;2023-07-08T09:34:23;101550.25;;;28.30;54.68
54262;BME280;40174;52.364;6.452;2023-07-08T09:37:20;101544.16;;;28.35;53.92
54262;BME280;40174;52.364;6.452;2023-07-08T09:39:47;101550.94;;;28.51;53.11
54262;BME280;40174;52.364;6.452;2023-07-08T09:42:15;101544.81;;;28.55;54.54
54262;BME280;40174;52.364;6.452;2023-07-08T09:44:44;101532.28;;;28.54;55.56
54262;BME280;40174;52.364;6.452;2023-07-08T09:47:21;101547.44;;;28.80;52.98
54262;BME280;40174;52.364;6.452;2023-07-08T09:49:48;101540.56;;;28.96;54.32
54262;BME280;40174;52.364;6.452;2023-07-08T09:52:16;101546.28;;;29.25;55.21
54262;BME280;40174;52.364;6.452;2023-07-08T09:54:45;101539.56;;;29.28;52.74
54262;BME280;40174;52.364;6.452;2023-07-08T09:57:19;101537.38;;;29.48;53.26
54262;BME280;40174;52.364;6.452;2023-07-08T09:59:49;101551.69;;;29.74;51.97
54262;BME280;40174;52.364;6.452;2023-07-08T10:02:27;101542.94;;;29.83;51.90
54262;BME280;40174;52.364;6.452;2023-07-08T10:04:56;101537.59;;;29.89;49.47
54262;BME280;40174;52.364;6.452;2023-07-08T10:07:30;101540.25;;;30.07;50.50
54262;BME280;40174;52.364;6.452;2023-07-08T10:10:00;101545.13;;;30.29;51.29
54262;BME280;40174;52.364;6.452;2023-07-08T10:12:30;101547.28;;;30.38;47.85
54262;BME280;40174;52.364;6.452;2023-07-08T10:15:00;101563.38;;;30.52;48.07
54262;BME280;40174;52.364;6.452;2023-07-08T10:17:28;101560.53;;;30.58;48.15
54262;BME280;40174;52.364;6.452;2023-07-08T10:19:56;101558.28;;;30.55;45.10
54262;BME280;40174;52.364;6.452;2023-07-08T10:22:36;101559.34;;;30.54;46.78
54262;BME280;40174;52.364;6.452;2023-07-08T10:25:12;101554.69;;;30.90;46.59
54262;BME280;40174;52.364;6.452;2023-07-08T10:27:51;101554.78;;;30.95;43.28
54262;BME280;40174;52.364;6.452;2023-07-08T10:30:22;101559.28;;;30.78;42.28
54262;BME280;40174;52.364;6.452;2023-07-08T10:32:59;101563.09;;;30.89;42.42
54262;BME280;40174;52.364;6.452;2023-07-08T10:35:35;101552.31;;;30.70;40.86
54262;BME280;40174;52.364;6.452;2023-07-08T10:38:23;101543.28;;;30.93;41.90
54262;BME280;40174;52.364;6.452;2023-07-08T10:40:54;101549.97;;;30.85;40.19
54262;BME280;40174;52.364;6.452;2023-07-08T10:43:42;101539.03;;;31.14;42.61
54262;BME280;40174;52.364;6.452;2023-07-08T10:46:26;101536.53;;;31.53;43.02
54262;BME280;40174;52.364;6.452;2023-07-08T10:49:10;101540.50;;;31.62;40.61
54262;BME280;40174;52.364;6.452;2023-07-08T10:51:46;101540.44;;;31.91;41.16
54262;BME280;40174;52.364;6.452;2023-07-08T10:54:30;101545.66;;;32.09;40.14
54262;BME280;40174;52.364;6.452;2023-07-08T10:57:10;101534.97;;;32.08;42.88
54262;BME280;40174;52.364;6.452;2023-07-08T10:59:47;101527.84;;;31.90;41.85
54262;BME280;40174;52.364;6.452;2023-07-08T11:02:45;101535.44;;;32.22;42.05
54262;BME280;40174;52.364;6.452;2023-07-08T11:05:25;101541.16;;;32.37;40.58
54262;BME280;40174;52.364;6.452;2023-07-08T11:07:59;101538.69;;;32.36;40.70
54262;BME280;40174;52.364;6.452;2023-07-08T11:10:32;101528.88;;;32.57;41.84
54262;BME280;40174;52.364;6.452;2023-07-08T11:13:03;101533.44;;;32.73;41.08
54262;BME280;40174;52.364;6.452;2023-07-08T11:15:36;101530.06;;;32.88;41.04
54262;BME280;40174;52.364;6.452;2023-07-08T11:18:11;101531.28;;;33.19;43.20
54262;BME280;40174;52.364;6.452;2023-07-08T11:20:44;101527.91;;;32.90;40.17
54262;BME280;40174;52.364;6.452;2023-07-08T11:23:25;101532.41;;;33.23;41.08
54262;BME280;40174;52.364;6.452;2023-07-08T11:26:06;101544.34;;;33.12;39.36
54262;BME280;40174;52.364;6.452;2023-07-08T11:28:34;101533.53;;;33.27;39.65
54262;BME280;40174;52.364;6.452;2023-07-08T11:31:01;101535.00;;;33.35;39.80
54262;BME280;40174;52.364;6.452;2023-07-08T11:33:28;101534.81;;;33.20;38.93
54262;BME280;40174;52.364;6.452;2023-07-08T11:35:57;101524.97;;;32.97;39.67
54262;BME280;40174;52.364;6.452;2023-07-08T11:38:26;101525.78;;;33.19;39.05
54262;BME280;40174;52.364;6.452;2023-07-08T11:40:57;101529.84;;;33.39;38.75
54262;BME280;40174;52.364;6.452;2023-07-08T11:43:26;101532.22;;;33.30;36.95
54262;BME280;40174;52.364;6.452;2023-07-08T11:45:55;101523.63;;;32.99;37.92
54262;BME280;40174;52.364;6.452;2023-07-08T11:48:25;101515.88;;;33.13;38.17
54262;BME280;40174;52.364;6.452;2023-07-08T11:50:53;101507.16;;;33.48;39.84
54262;BME280;40174;52.364;6.452;2023-07-08T11:53:46;101511.03;;;33.80;38.00
54262;BME280;40174;52.364;6.452;2023-07-08T11:56:23;101504.31;;;34.03;39.08
54262;BME280;40174;52.364;6.452;2023-07-08T11:59:10;101503.66;;;34.28;38.49
54262;BME280;40174;52.364;6.452;2023-07-08T12:01:40;101503.66;;;34.23;36.00
54262;BME280;40174;52.364;6.452;2023-07-08T12:04:32;101506.97;;;34.30;34.74
54262;BME280;40174;52.364;6.452;2023-07-08T12:07:14;101508.06;;;34.29;33.88
54262;BME280;40174;52.364;6.452;2023-07-08T12:09:47;101509.00;;;34.50;34.05
54262;BME280;40174;52.364;6.452;2023-07-08T12:12:20;101510.59;;;34.35;33.41
54262;BME280;40174;52.364;6.452;2023-07-08T12:14:48;101509.69;;;34.25;33.73
54262;BME280;40174;52.364;6.452;2023-07-08T12:17:15;101504.28;;;34.40;33.24
54262;BME280;40174;52.364;6.452;2023-07-08T12:19:43;101510.69;;;34.61;33.78
54262;BME280;40174;52.364;6.452;2023-07-08T12:22:12;101500.34;;;34.84;33.27
54262;BME280;40174;52.364;6.452;2023-07-08T12:24:39;101503.44;;;35.03;33.91
54262;BME280;40174;52.364;6.452;2023-07-08T12:27:09;101488.13;;;35.27;32.73
54262;BME280;40174;52.364;6.452;2023-07-08T12:29:37;101483.44;;;35.12;32.90
54262;BME280;40174;52.364;6.452;2023-07-08T12:32:05;101494.66;;;35.01;31.42
54262;BME280;40174;52.364;6.452;2023-07-08T12:34:32;101491.06;;;34.95;31.24
54262;BME280;40174;52.364;6.452;2023-07-08T12:36:59;101494.09;;;34.98;32.26
54262;BME280;40174;52.364;6.452;2023-07-08T12:39:26;101493.88;;;35.15;32.00
54262;BME280;40174;52.364;6.452;2023-07-08T12:41:53;101494.72;;;35.16;31.79
54262;BME280;40174;52.364;6.452;2023-07-08T12:44:21;101491.16;;;35.26;32.27
54262;BME280;40174;52.364;6.452;2023-07-08T12:46:52;101491.16;;;35.41;31.62
54262;BME280;40174;52.364;6.452;2023-07-08T12:49:19;101484.78;;;35.05;31.41
54262;BME280;40174;52.364;6.452;2023-07-08T12:51:49;101488.81;;;34.82;32.19
54262;BME280;40174;52.364;6.452;2023-07-08T12:54:15;101502.31;;;34.93;31.10
54262;BME280;40174;52.364;6.452;2023-07-08T12:56:45;101497.16;;;35.12;31.52